createdAt,value
2023-05-19T00:00:48.560Z,101320.91
2023-05-19T00:06:54.534Z,101312.94
2023-05-19T00:09:21.290Z,101308.81
2023-05-19T00:11:48.002Z,101310.75
2023-05-19T00:14:14.496Z,101315.25
2023-05-19T00:16:42.204Z,101318.56
2023-05-19T00:19:10.169Z,101318.31
2023-05-19T00:21:40.281Z,101314.41
2023-05-19T00:24:07.536Z,101312.56
2023-05-19T00:26:34.071Z,101324.28
2023-05-19T00:29:00.830Z,101320.09
2023-05-19T00:31:27.342Z,101320.09
2023-05-19T00:33:53.857Z,101311.44
2023-05-19T00:36:20.345Z,101309.34
2023-05-19T00:38:46.727Z,101303.38
2023-05-19T00:41:13.206Z,101310.56
2023-05-19T00:43:39.781Z,101301.88
2023-05-19T00:46:07.245Z,101295.44
2023-05-19T00:48:33.755Z,101299.56
2023-05-19T00:51:04.634Z,101299.56
2023-05-19T00:53:33.345Z,101293.56
2023-05-19T00:56:00.420Z,101291.41
2023-05-19T00:58:30.536Z,101291.41
2023-05-19T01:01:03.170Z,101296.63
2023-05-19T01:03:35.498Z,101291.13
2023-05-19T01:06:07.078Z,101288.69
2023-05-19T01:08:35.586Z,101283.88
2023-05-19T01:11:02.205Z,101279.75
2023-05-19T01:13:29.265Z,101284.41
2023-05-19T01:16:34.866Z,101273.38
2023-05-19T01:19:25.371Z,101280.22
2023-05-19T01:22:13.056Z,101282.91
2023-05-19T01:24:45.378Z,101281.72
2023-05-19T01:27:30.103Z,101279.25
2023-05-19T01:30:11.832Z,101276.91
2023-05-19T01:32:42.317Z,101275.16
2023-05-19T01:35:12.425Z,101285.78
2023-05-19T01:37:40.641Z,101275.56
2023-05-19T01:40:09.961Z,101276.00
2023-05-19T01:42:39.766Z,101287.19
2023-05-19T01:45:10.365Z,101283.50
2023-05-19T01:47:38.586Z,101281.81
2023-05-19T01:50:06.106Z,101292.16
2023-05-19T01:52:32.985Z,101282.97
2023-05-19T01:54:59.701Z,101290.47
2023-05-19T01:58:00.540Z,101289.47
2023-05-19T02:00:54.569Z,101286.56
2023-05-19T02:03:48.029Z,101285.06
2023-05-19T02:06:37.016Z,101295.25
2023-05-19T02:09:13.342Z,101289.03
2023-05-19T02:12:01.045Z,101283.66
2023-05-19T02:14:35.323Z,101293.06
2023-05-19T02:17:04.376Z,101288.66
2023-05-19T02:19:38.967Z,101296.34
2023-05-19T02:22:05.825Z,101295.59
2023-05-19T02:24:32.604Z,101297.31
2023-05-19T02:26:59.487Z,101296.41
2023-05-19T02:29:26.061Z,101293.06
2023-05-19T02:31:52.522Z,101288.00
2023-05-19T02:34:18.999Z,101287.50
2023-05-19T02:36:45.412Z,101289.44
2023-05-19T02:39:12.362Z,101285.97
2023-05-19T02:41:39.054Z,101285.72
2023-05-19T02:44:05.584Z,101286.56
2023-05-19T02:46:31.997Z,101280.16
2023-05-19T02:48:58.529Z,101279.91
2023-05-19T02:51:24.930Z,101281.22
2023-05-19T02:53:51.260Z,101273.28
2023-05-19T02:56:17.658Z,101264.72
2023-05-19T02:58:44.519Z,101266.56
2023-05-19T03:01:11.086Z,101271.41
2023-05-19T03:03:37.494Z,101275.69
2023-05-19T03:06:04.873Z,101273.34
2023-05-19T03:08:31.266Z,101276.22
2023-05-19T03:10:57.631Z,101276.34
2023-05-19T03:13:24.137Z,101278.06
2023-05-19T03:15:51.075Z,101285.13
2023-05-19T03:18:17.582Z,101277.09
2023-05-19T03:20:45.442Z,101277.84
2023-05-19T03:23:11.940Z,101277.22
2023-05-19T03:25:38.538Z,101280.44
2023-05-19T03:28:05.434Z,101281.41
2023-05-19T03:30:32.027Z,101284.53
2023-05-19T03:32:58.663Z,101287.13
2023-05-19T03:35:25.013Z,101291.38
2023-05-19T03:37:51.440Z,101287.31
2023-05-19T03:40:18.787Z,101285.38
2023-05-19T03:42:45.206Z,101286.69
2023-05-19T03:45:11.762Z,101284.75
2023-05-19T03:47:38.152Z,101293.97
2023-05-19T03:50:04.930Z,101287.75
2023-05-19T03:52:31.316Z,101283.16
2023-05-19T03:54:57.840Z,101285.94
2023-05-19T03:57:24.346Z,101279.81
2023-05-19T03:59:50.790Z,101287.84
2023-05-19T04:02:17.306Z,101280.78
2023-05-19T04:04:43.725Z,101291.00
2023-05-19T04:07:10.082Z,101290.13
2023-05-19T04:09:37.539Z,101295.69
2023-05-19T04:12:04.126Z,101291.44
2023-05-19T04:14:30.547Z,101296.78
2023-05-19T04:16:57.133Z,101297.94
2023-05-19T04:19:23.596Z,101294.41
2023-05-19T04:21:49.982Z,101303.31
2023-05-19T04:24:16.375Z,101302.03
2023-05-19T04:26:45.967Z,101301.06
2023-05-19T04:29:13.757Z,101299.34
2023-05-19T04:31:41.009Z,101306.53
2023-05-19T04:34:10.485Z,101297.41
2023-05-19T04:36:37.714Z,101295.69
2023-05-19T04:39:07.637Z,101292.91
2023-05-19T04:41:34.751Z,101291.00
2023-05-19T04:44:01.105Z,101294.41
2023-05-19T04:46:29.942Z,101298.69
2023-05-19T04:48:57.107Z,101310.25
2023-05-19T04:51:29.219Z,101297.84
2023-05-19T04:53:59.873Z,101304.47
2023-05-19T04:56:27.370Z,101307.16
2023-05-19T04:58:53.857Z,101300.59
2023-05-19T05:01:22.684Z,101312.38
2023-05-19T05:03:49.322Z,101312.38
2023-05-19T05:06:16.214Z,101315.97
2023-05-19T05:08:42.672Z,101316.84
2023-05-19T05:11:09.437Z,101310.56
2023-05-19T05:13:36.154Z,101311.22
2023-05-19T05:16:06.312Z,101312.38
2023-05-19T05:18:34.179Z,101309.75
2023-05-19T05:21:01.149Z,101308.94
2023-05-19T05:23:27.879Z,101310.19
2023-05-19T05:25:54.679Z,101310.84
2023-05-19T05:28:21.068Z,101316.13
2023-05-19T05:30:47.469Z,101309.22
2023-05-19T05:33:14.010Z,101311.31
2023-05-19T05:35:40.759Z,101309.53
2023-05-19T05:38:08.144Z,101307.91
2023-05-19T05:40:34.517Z,101301.81
2023-05-19T05:43:00.946Z,101303.91
2023-05-19T05:45:27.374Z,101295.34
2023-05-19T05:47:54.157Z,101296.97
2023-05-19T05:50:20.832Z,101297.09
2023-05-19T05:52:48.267Z,101296.00
2023-05-19T05:55:17.615Z,101297.56
2023-05-19T05:57:44.203Z,101285.22
2023-05-19T06:00:15.434Z,101287.78
2023-05-19T06:02:46.349Z,101290.81
2023-05-19T06:05:14.027Z,101292.13
2023-05-19T06:07:41.195Z,101291.16
2023-05-19T06:10:09.025Z,101292.81
2023-05-19T06:12:35.812Z,101286.19
2023-05-19T06:15:02.987Z,101283.25
2023-05-19T06:17:29.432Z,101291.78
2023-05-19T06:19:55.823Z,101290.66
2023-05-19T06:22:22.255Z,101291.47
2023-05-19T06:24:48.637Z,101289.72
2023-05-19T06:27:15.213Z,101298.88
2023-05-19T06:29:41.577Z,101289.59
2023-05-19T06:32:07.911Z,101297.00
2023-05-19T06:34:34.287Z,101297.72
2023-05-19T06:37:02.301Z,101301.19
2023-05-19T06:39:28.722Z,101295.78
2023-05-19T06:41:55.112Z,101304.22
2023-05-19T06:44:22.653Z,101298.44
2023-05-19T06:46:49.176Z,101296.91
2023-05-19T06:49:15.628Z,101302.88
2023-05-19T06:51:42.006Z,101294.41
2023-05-19T06:54:10.962Z,101290.75
2023-05-19T06:56:37.391Z,101289.94
2023-05-19T06:59:04.137Z,101297.03
2023-05-19T07:01:30.926Z,101289.47
2023-05-19T07:03:57.689Z,101288.59
2023-05-19T07:06:24.125Z,101294.03
2023-05-19T07:08:50.778Z,101283.84
2023-05-19T07:11:17.698Z,101285.69
2023-05-19T07:13:44.100Z,101286.41
2023-05-19T07:16:10.625Z,101285.25
2023-05-19T07:18:37.146Z,101272.22
2023-05-19T07:21:03.704Z,101270.78
2023-05-19T07:23:30.090Z,101285.81
2023-05-19T07:25:56.960Z,101285.25
2023-05-19T07:28:23.525Z,101282.72
2023-05-19T07:30:49.992Z,101280.16
2023-05-19T07:33:16.472Z,101283.03
2023-05-19T07:35:42.965Z,101272.53
2023-05-19T07:38:09.425Z,101275.94
2023-05-19T07:40:35.782Z,101271.66
2023-05-19T07:43:02.102Z,101281.59
2023-05-19T07:45:28.613Z,101271.94
2023-05-19T07:47:55.083Z,101269.06
2023-05-19T07:50:21.558Z,101263.81
2023-05-19T07:52:47.938Z,101257.72
2023-05-19T07:55:14.909Z,101265.09
2023-05-19T07:57:41.453Z,101262.75
2023-05-19T08:00:10.008Z,101260.44
2023-05-19T08:02:36.459Z,101248.88
2023-05-19T08:05:03.028Z,101261.66
2023-05-19T08:07:29.436Z,101264.03
2023-05-19T08:09:55.840Z,101261.25
2023-05-19T08:12:22.344Z,101255.25
2023-05-19T08:14:48.712Z,101254.88
2023-05-19T08:17:15.138Z,101254.81
2023-05-19T08:19:41.515Z,101250.41
2023-05-19T08:22:07.859Z,101250.41
2023-05-19T08:24:34.430Z,101253.16
2023-05-19T08:27:00.840Z,101253.72
2023-05-19T08:29:27.190Z,101243.13
2023-05-19T08:31:53.759Z,101244.09
2023-05-19T08:34:20.672Z,101243.47
2023-05-19T08:36:47.614Z,101235.13
2023-05-19T08:39:16.125Z,101234.56
2023-05-19T08:41:42.553Z,101232.56
2023-05-19T08:44:09.181Z,101215.97
2023-05-19T08:46:35.847Z,101226.25
2023-05-19T08:49:07.517Z,101228.34
2023-05-19T08:51:43.063Z,101221.47
2023-05-19T08:54:15.815Z,101223.53
2023-05-19T08:56:46.447Z,101212.28
2023-05-19T08:59:17.228Z,101220.72
2023-05-19T09:01:48.486Z,101209.53
2023-05-19T09:04:16.750Z,101207.66
2023-05-19T09:06:45.378Z,101200.97
2023-05-19T09:09:12.146Z,101191.19
2023-05-19T09:11:38.508Z,101188.63
2023-05-19T09:14:05.633Z,101187.28
2023-05-19T09:16:34.014Z,101191.38
2023-05-19T09:19:01.113Z,101181.44
2023-05-19T09:21:30.994Z,101170.91
2023-05-19T09:24:08.346Z,101178.44
2023-05-19T09:26:39.767Z,101173.41
2023-05-19T09:29:16.593Z,101175.00
2023-05-19T09:31:51.443Z,101162.72
2023-05-19T09:34:18.905Z,101173.63
2023-05-19T09:36:49.323Z,101156.50
2023-05-19T09:39:16.988Z,101157.13
2023-05-19T09:41:44.357Z,101149.19
2023-05-19T09:44:22.075Z,101150.00
2023-05-19T09:46:52.856Z,101149.19
2023-05-19T09:49:29.499Z,101149.16
2023-05-19T09:51:56.718Z,101143.09
2023-05-19T09:54:24.727Z,101153.59
2023-05-19T09:57:01.473Z,101142.53
2023-05-19T09:59:32.130Z,101136.84
2023-05-19T10:02:00.825Z,101137.38
2023-05-19T10:04:28.708Z,101136.59
2023-05-19T10:06:56.250Z,101143.78
2023-05-19T10:09:27.353Z,101131.00
2023-05-19T10:11:55.330Z,101133.97
2023-05-19T10:14:26.376Z,101142.03
2023-05-19T10:16:58.252Z,101136.38
2023-05-19T10:19:26.561Z,101136.81
2023-05-19T10:21:53.463Z,101134.50
2023-05-19T10:24:21.216Z,101122.38
2023-05-19T10:26:59.345Z,101121.88
2023-05-19T10:29:29.982Z,101113.53
2023-05-19T10:32:02.055Z,101118.22
2023-05-19T10:34:45.394Z,101102.41
2023-05-19T10:37:23.117Z,101106.47
2023-05-19T10:39:51.236Z,101110.41
2023-05-19T10:42:34.914Z,101123.53
2023-05-19T10:45:23.853Z,101107.75
2023-05-19T10:47:51.684Z,101107.19
2023-05-19T10:50:18.442Z,101108.31
2023-05-19T10:52:53.787Z,101102.47
2023-05-19T10:55:49.828Z,101089.16
2023-05-19T10:58:37.042Z,101098.75
2023-05-19T11:01:07.998Z,101096.13
2023-05-19T11:03:48.257Z,101100.06
2023-05-19T11:06:21.958Z,101099.19
2023-05-19T11:08:56.988Z,101090.44
2023-05-19T11:11:23.650Z,101101.56
2023-05-19T11:13:56.692Z,101101.34
2023-05-19T11:16:32.106Z,101107.75
2023-05-19T11:19:01.960Z,101099.22
2023-05-19T11:21:42.856Z,101099.19
2023-05-19T11:24:09.831Z,101094.97
2023-05-19T11:26:46.254Z,101091.97
2023-05-19T11:29:12.755Z,101081.34
2023-05-19T11:31:39.478Z,101080.09
2023-05-19T11:34:07.295Z,101094.56
2023-05-19T11:36:34.942Z,101084.09
2023-05-19T11:39:01.606Z,101088.06
2023-05-19T11:41:28.458Z,101081.25
2023-05-19T11:43:54.821Z,101089.38
2023-05-19T11:46:21.450Z,101078.53
2023-05-19T11:48:48.422Z,101078.81
2023-05-19T11:51:14.815Z,101082.53
2023-05-19T11:53:41.306Z,101064.78
2023-05-19T11:56:07.675Z,101074.88
2023-05-19T11:58:34.043Z,101068.84
2023-05-19T12:01:04.135Z,101067.50
2023-05-19T12:03:32.912Z,101058.56
2023-05-19T12:05:59.739Z,101064.03
2023-05-19T12:08:27.366Z,101066.09
2023-05-19T12:10:54.266Z,101072.72
2023-05-19T12:13:22.611Z,101064.81
2023-05-19T12:15:51.014Z,101063.09
2023-05-19T12:18:17.415Z,101069.97
2023-05-19T12:20:44.170Z,101055.34
2023-05-19T12:23:12.355Z,101063.16
2023-05-19T12:25:39.048Z,101059.63
2023-05-19T12:28:05.631Z,101052.13
2023-05-19T12:30:33.457Z,101054.00
2023-05-19T12:33:01.992Z,101054.16
2023-05-19T12:35:30.281Z,101052.50
2023-05-19T12:37:57.579Z,101035.34
2023-05-19T12:40:24.002Z,101031.78
2023-05-19T12:42:53.248Z,101050.22
2023-05-19T12:45:22.249Z,101036.22
2023-05-19T12:47:49.286Z,101045.34
2023-05-19T12:50:16.104Z,101035.25
2023-05-19T12:52:46.853Z,101039.16
2023-05-19T12:55:16.301Z,101026.69
2023-05-19T12:57:45.106Z,101027.47
2023-05-19T13:00:11.568Z,101024.16
2023-05-19T13:02:55.380Z,101028.00
2023-05-19T13:05:22.759Z,101027.03
2023-05-19T13:07:59.930Z,101014.78
2023-05-19T13:10:27.838Z,101028.94
2023-05-19T13:12:55.856Z,101035.53
2023-05-19T13:15:24.867Z,101032.97
2023-05-19T13:17:51.340Z,101012.75
2023-05-19T13:20:18.181Z,101029.88
2023-05-19T13:22:44.836Z,101016.88
2023-05-19T13:25:11.318Z,101009.56
2023-05-19T13:27:37.835Z,100999.28
2023-05-19T13:30:05.167Z,101009.75
2023-05-19T13:32:31.588Z,101003.66
2023-05-19T13:34:58.656Z,101003.72
2023-05-19T13:37:25.208Z,100994.38
2023-05-19T13:39:51.566Z,100997.59
2023-05-19T13:42:18.134Z,101009.34
2023-05-19T13:44:47.754Z,101000.28
2023-05-19T13:47:14.349Z,101005.88
2023-05-19T13:49:41.434Z,100997.66
2023-05-19T13:52:07.952Z,100990.72
2023-05-19T13:54:34.502Z,100997.84
2023-05-19T13:57:01.047Z,100991.41
2023-05-19T13:59:28.226Z,100985.59
2023-05-19T14:01:54.834Z,100994.50
2023-05-19T14:04:21.477Z,100989.34
2023-05-19T14:06:47.893Z,100988.88
2023-05-19T14:09:14.503Z,100990.47
2023-05-19T14:11:41.125Z,100988.16
2023-05-19T14:14:08.785Z,100982.69
2023-05-19T14:16:38.140Z,100995.41
2023-05-19T14:19:04.837Z,100990.25
2023-05-19T14:21:32.471Z,100992.66
2023-05-19T14:23:59.139Z,100990.47
2023-05-19T14:26:27.365Z,100986.66
2023-05-19T14:28:56.943Z,100990.16
2023-05-19T14:31:23.755Z,100988.47
2023-05-19T14:33:51.160Z,100981.84
2023-05-19T14:36:17.920Z,100981.00
2023-05-19T14:38:44.354Z,100984.69
2023-05-19T14:41:10.819Z,100982.13
2023-05-19T14:43:37.166Z,100971.16
2023-05-19T14:46:03.653Z,100963.31
2023-05-19T14:48:30.085Z,100970.63
2023-05-19T14:50:56.456Z,100976.84
2023-05-19T14:53:22.855Z,100977.13
2023-05-19T14:55:49.620Z,100974.47
2023-05-19T14:58:28.273Z,100979.25
2023-05-19T15:00:57.843Z,100977.53
2023-05-19T15:03:24.871Z,100966.94
2023-05-19T15:05:51.376Z,100960.63
2023-05-19T15:08:17.771Z,100977.75
2023-05-19T15:10:48.422Z,100969.47
2023-05-19T15:13:14.823Z,100961.59
2023-05-19T15:15:41.148Z,100965.91
2023-05-19T15:18:07.516Z,100961.06
2023-05-19T15:20:34.110Z,100963.38
2023-05-19T15:23:00.544Z,100958.53
2023-05-19T15:25:26.946Z,100962.44
2023-05-19T15:27:53.413Z,100961.34
2023-05-19T15:30:19.935Z,100959.25
2023-05-19T15:32:46.442Z,100965.56
2023-05-19T15:35:12.909Z,100962.84
2023-05-19T15:37:39.326Z,100962.44
2023-05-19T15:40:06.595Z,100956.25
2023-05-19T15:42:33.081Z,100958.63
2023-05-19T15:44:59.537Z,100958.97
2023-05-19T15:47:25.920Z,100960.78
2023-05-19T15:49:52.255Z,100952.31
2023-05-19T15:52:18.698Z,100950.34
2023-05-19T15:54:45.416Z,100952.38
2023-05-19T15:57:13.411Z,100959.38
2023-05-19T15:59:39.838Z,100950.81
2023-05-19T16:02:06.517Z,100958.06
2023-05-19T16:04:33.415Z,100955.53
2023-05-19T16:06:59.782Z,100946.00
2023-05-19T16:09:26.248Z,100943.41
2023-05-19T16:11:52.632Z,100954.84
2023-05-19T16:14:19.009Z,100955.88
2023-05-19T16:16:45.538Z,100949.13
2023-05-19T16:19:11.972Z,100941.00
2023-05-19T16:21:38.432Z,100941.16
2023-05-19T16:24:05.062Z,100935.66
2023-05-19T16:26:31.473Z,100934.88
2023-05-19T16:28:57.838Z,100930.75
2023-05-19T16:31:24.428Z,100926.53
2023-05-19T16:33:50.821Z,100938.84
2023-05-19T16:36:17.261Z,100936.72
2023-05-19T16:38:43.736Z,100935.16
2023-05-19T16:41:13.200Z,100932.44
2023-05-19T16:43:39.588Z,100930.06
2023-05-19T16:46:06.411Z,100919.94
2023-05-19T16:48:32.880Z,100924.91
2023-05-19T16:50:59.428Z,100922.94
2023-05-19T16:53:25.794Z,100927.00
2023-05-19T16:55:52.207Z,100924.72
2023-05-19T16:58:18.588Z,100924.47
2023-05-19T17:00:45.096Z,100933.81
2023-05-19T17:03:11.618Z,100917.88
2023-05-19T17:05:41.662Z,100925.06
2023-05-19T17:08:08.061Z,100924.69
2023-05-19T17:10:34.668Z,100917.41
2023-05-19T17:13:01.387Z,100918.72
2023-05-19T17:15:27.759Z,100917.47
2023-05-19T17:17:54.228Z,100916.44
2023-05-19T17:20:20.623Z,100914.50
2023-05-19T17:22:46.998Z,100920.41
2023-05-19T17:25:13.383Z,100924.47
2023-05-19T17:27:39.834Z,100923.31
2023-05-19T17:30:06.947Z,100924.88
2023-05-19T17:32:38.399Z,100927.78
2023-05-19T17:35:06.692Z,100915.22
2023-05-19T17:37:33.248Z,100933.88
2023-05-19T17:39:59.842Z,100929.88
2023-05-19T17:42:26.210Z,100935.97
2023-05-19T17:44:52.639Z,100933.97
2023-05-19T17:47:19.023Z,100936.69
2023-05-19T17:49:45.438Z,100940.16
2023-05-19T17:52:12.066Z,100934.59
2023-05-19T17:54:38.634Z,100938.34
2023-05-19T17:57:11.289Z,100935.13
2023-05-19T17:59:38.166Z,100934.41
2023-05-19T18:02:04.903Z,100923.78
2023-05-19T18:04:31.735Z,100933.16
2023-05-19T18:06:59.100Z,100939.25
2023-05-19T18:09:28.901Z,100939.44
2023-05-19T18:11:56.089Z,100940.69
2023-05-19T18:14:22.617Z,100946.88
2023-05-19T18:16:49.956Z,100950.84
2023-05-19T18:19:16.522Z,100955.06
2023-05-19T18:21:42.987Z,100958.19
2023-05-19T18:24:11.225Z,100960.63
2023-05-19T18:26:41.855Z,100949.41
2023-05-19T18:29:09.559Z,100941.59
2023-05-19T18:31:36.041Z,100943.34
2023-05-19T18:34:04.224Z,100950.16
2023-05-19T18:36:31.352Z,100950.16
2023-05-19T18:38:58.870Z,100946.47
2023-05-19T18:41:25.684Z,100944.41
2023-05-19T18:43:52.099Z,100954.63
2023-05-19T18:46:18.528Z,100948.00
2023-05-19T18:48:45.113Z,100954.16
2023-05-19T18:51:11.637Z,100949.22
2023-05-19T18:53:38.065Z,100958.25
2023-05-19T18:56:04.695Z,100949.66
2023-05-19T18:58:31.044Z,100953.91
2023-05-19T19:00:57.860Z,100955.44
2023-05-19T19:03:24.400Z,100954.09
2023-05-19T19:05:58.218Z,100955.59
2023-05-19T19:08:24.704Z,100953.06
2023-05-19T19:10:51.709Z,100958.84
2023-05-19T19:13:18.444Z,100962.44
2023-05-19T19:15:45.004Z,100956.47
2023-05-19T19:18:11.932Z,100960.56
2023-05-19T19:20:38.614Z,100963.75
2023-05-19T19:23:06.495Z,100967.00
2023-05-19T19:25:33.618Z,100961.91
2023-05-19T19:27:59.952Z,100967.00
2023-05-19T19:30:27.185Z,100965.66
2023-05-19T19:32:54.791Z,100974.34
2023-05-19T19:35:21.247Z,100977.22
2023-05-19T19:37:47.688Z,100977.91
2023-05-19T19:40:14.274Z,100982.31
2023-05-19T19:42:40.864Z,100975.53
2023-05-19T19:45:07.739Z,100977.91
2023-05-19T19:47:34.151Z,100979.25
2023-05-19T19:50:02.536Z,100974.84
2023-05-19T19:52:28.941Z,100976.72
2023-05-19T19:54:55.343Z,100971.44
2023-05-19T19:57:21.743Z,100973.84
2023-05-19T19:59:54.911Z,100976.88
2023-05-19T20:02:21.598Z,100974.16
2023-05-19T20:04:48.102Z,100972.66
2023-05-19T20:07:14.472Z,100977.22
2023-05-19T20:09:40.840Z,100983.81
2023-05-19T20:12:07.379Z,100969.38
2023-05-19T20:14:33.707Z,100973.63
2023-05-19T20:17:00.125Z,100972.94
2023-05-19T20:19:26.818Z,100984.09
2023-05-19T20:21:53.164Z,100975.50
2023-05-19T20:24:19.721Z,100982.41
2023-05-19T20:26:46.533Z,100972.75
2023-05-19T20:29:12.905Z,100981.03
2023-05-19T20:31:39.330Z,100973.41
2023-05-19T20:34:05.883Z,100982.72
2023-05-19T20:36:32.312Z,100978.81
2023-05-19T20:38:58.668Z,100979.66
2023-05-19T20:41:25.230Z,100977.44
2023-05-19T20:43:51.588Z,100967.47
2023-05-19T20:46:17.980Z,100973.41
2023-05-19T20:48:44.477Z,100971.84
2023-05-19T20:51:10.878Z,100974.72
2023-05-19T20:53:37.471Z,100975.03
2023-05-19T20:56:05.187Z,100978.91
2023-05-19T20:58:31.951Z,100973.84
2023-05-19T21:00:58.494Z,100967.56
2023-05-19T21:03:25.224Z,100983.13
2023-05-19T21:05:51.580Z,100977.53
2023-05-19T21:08:18.025Z,100976.00
2023-05-19T21:10:44.566Z,100972.75
2023-05-19T21:13:10.966Z,100971.56
2023-05-19T21:15:37.345Z,100975.63
2023-05-19T21:18:03.931Z,100981.41
2023-05-19T21:20:30.479Z,100977.28
2023-05-19T21:22:56.840Z,100968.31
2023-05-19T21:25:23.336Z,100981.88
2023-05-19T21:27:51.293Z,100980.03
2023-05-19T21:30:17.691Z,100983.75
2023-05-19T21:32:44.257Z,100973.59
2023-05-19T21:35:10.699Z,100988.50
2023-05-19T21:37:37.158Z,100974.22
2023-05-19T21:40:03.711Z,100980.16
2023-05-19T21:42:30.125Z,100981.50
2023-05-19T21:44:56.763Z,100987.41
2023-05-19T21:47:23.179Z,100976.75
2023-05-19T21:49:49.498Z,100985.34
2023-05-19T21:52:15.999Z,100981.78
2023-05-19T21:54:42.380Z,100985.81
2023-05-19T21:57:10.985Z,100980.72
2023-05-19T21:59:37.301Z,100971.06
2023-05-19T22:02:04.481Z,100971.38
2023-05-19T22:04:33.578Z,100969.44
2023-05-19T22:07:00.002Z,100980.84
2023-05-19T22:09:26.394Z,100980.31
2023-05-19T22:11:52.761Z,100978.78
2023-05-19T22:14:19.142Z,100970.41
2023-05-19T22:16:47.288Z,100977.66
2023-05-19T22:19:14.473Z,100966.34
2023-05-19T22:21:41.054Z,100974.28
2023-05-19T22:24:07.468Z,100963.41
2023-05-19T22:26:35.605Z,100970.16
2023-05-19T22:29:02.557Z,100957.47
2023-05-19T22:31:29.596Z,100962.88
2023-05-19T22:33:56.210Z,100962.34
2023-05-19T22:36:22.629Z,100963.16
2023-05-19T22:38:48.970Z,100964.53
2023-05-19T22:41:15.315Z,100963.28
2023-05-19T22:43:41.821Z,100965.31
2023-05-19T22:46:08.232Z,100961.94
2023-05-19T22:48:34.604Z,100956.53
2023-05-19T22:51:01.278Z,100973.03
2023-05-19T22:53:27.641Z,100961.75
2023-05-19T22:55:54.044Z,100952.56
2023-05-19T22:58:20.477Z,100961.53
2023-05-19T23:00:46.825Z,100958.84
2023-05-19T23:03:13.323Z,100954.69
2023-05-19T23:05:40.139Z,100945.06
2023-05-19T23:08:06.531Z,100958.78
2023-05-19T23:10:32.908Z,100957.41
2023-05-19T23:12:59.298Z,100950.06
2023-05-19T23:15:25.652Z,100948.81
2023-05-19T23:17:52.076Z,100949.53
2023-05-19T23:20:18.548Z,100946.13
2023-05-19T23:22:44.880Z,100954.56
2023-05-19T23:25:11.419Z,100944.91
2023-05-19T23:27:37.866Z,100947.91
2023-05-19T23:30:05.962Z,100943.22
2023-05-19T23:32:32.426Z,100931.16
2023-05-19T23:35:09.157Z,100935.56
2023-05-19T23:37:35.661Z,100928.63
2023-05-19T23:40:01.993Z,100932.78
2023-05-19T23:42:28.370Z,100930.41
2023-05-19T23:44:54.744Z,100928.00
2023-05-19T23:47:21.168Z,100929.50
2023-05-19T23:49:48.620Z,100933.19
2023-05-19T23:52:18.166Z,100926.47
2023-05-19T23:54:44.524Z,100921.59
2023-05-19T23:57:10.907Z,100931.63
2023-05-19T23:59:37.377Z,100937.50
